Time;durP1;ratioP1;P1;durP2;ratioP2;P2;SDS_P1;SDS_P2;PMS_P1;PMS_P2;Temp;Humidity;BMP_temperature;BMP_pressure;BME280_temperature;BME280_humidity;BME280_pressure;Samples;Min_cycle;Max_cycle;Signal;HPM_P1;HPM_P2
2024/01/05 00:00:56;;;;;;;565.95;231.38;;;;;;;4.84;100.00;97060.78;5057092;28;20036;-56
2024/01/05 00:03:22;;;;;;;525.40;231.18;;;;;;;5.19;100.00;97067.78;5058099;28;20111;-57
2024/01/05 00:05:47;;;;;;;430.77;221.35;;;;;;;5.41;100.00;97057.53;5056342;28;20331;-58
2024/01/05 00:08:12;;;;;;;396.88;218.55;;;;;;;5.66;100.00;97064.47;5056807;28;20093;-57
2024/01/05 00:10:38;;;;;;;460.83;226.65;;;;;;;5.83;100.00;97067.06;5056638;28;20036;-58
2024/01/05 00:13:03;;;;;;;581.65;223.45;;;;;;;5.58;100.00;97067.91;5054689;28;20396;-58
2024/01/05 00:15:28;;;;;;;464.20;220.70;;;;;;;5.59;100.00;97061.00;5056487;28;20044;-58
2024/01/05 00:17:53;;;;;;;471.58;225.27;;;;;;;5.43;100.00;97055.84;5056501;28;20032;-57
2024/01/05 00:20:19;;;;;;;459.77;223.07;;;;;;;5.30;100.00;97066.97;5057017;28;20047;-58
2024/01/05 00:22:44;;;;;;;432.85;222.43;;;;;;;5.11;100.00;97058.31;5057714;28;20031;-58
2024/01/05 00:25:09;;;;;;;556.83;235.68;;;;;;;5.13;100.00;97052.31;5053187;28;20366;-59
2024/01/05 00:27:35;;;;;;;444.80;226.95;;;;;;;4.91;100.00;97046.22;5056290;28;20047;-57
2024/01/05 00:30:00;;;;;;;569.50;234.10;;;;;;;4.99;100.00;97048.81;5055324;28;20028;-57
2024/01/05 00:32:25;;;;;;;501.38;230.63;;;;;;;5.16;100.00;97046.31;5055723;28;20452;-59
2024/01/05 00:34:51;;;;;;;484.88;228.50;;;;;;;5.13;100.00;97036.00;5055864;28;20090;-57
2024/01/05 00:37:16;;;;;;;436.33;224.75;;;;;;;5.28;100.00;97036.03;5055493;28;20056;-57
2024/01/05 00:39:41;;;;;;;479.42;230.98;;;;;;;5.41;100.00;97036.91;5057249;28;20047;-59
2024/01/05 00:42:07;;;;;;;544.17;226.95;;;;;;;5.55;100.00;97033.50;5055313;28;20610;-57
2024/01/05 00:44:32;;;;;;;450.08;228.23;;;;;;;5.51;100.00;97032.63;5056936;28;20031;-57
2024/01/05 00:46:58;;;;;;;564.00;229.00;;;;;;;5.64;100.00;97027.50;5054091;28;20044;-57
2024/01/05 00:49:23;;;;;;;546.05;225.27;;;;;;;5.54;100.00;97022.34;5057683;28;20019;-57
2024/01/05 00:51:48;;;;;;;425.30;221.15;;;;;;;5.57;100.00;97016.31;5057102;28;20086;-59
2024/01/05 00:54:14;;;;;;;494.83;229.57;;;;;;;5.64;100.00;97014.59;5055904;28;20141;-58
2024/01/05 00:56:39;;;;;;;441.13;228.40;;;;;;;5.26;100.00;97009.38;5055240;28;20122;-58
2024/01/05 00:59:06;;;;;;;519.72;233.25;;;;;;;5.05;100.00;97011.03;5056210;28;20107;-58
2024/01/05 01:01:31;;;;;;;539.88;236.43;;;;;;;5.25;100.00;97009.38;5054426;28;20028;-59
2024/01/05 01:03:56;;;;;;;507.65;236.90;;;;;;;5.44;100.00;96998.25;5053190;28;20408;-58
2024/01/05 01:06:22;;;;;;;536.55;241.27;;;;;;;5.29;100.00;96981.03;5052575;28;20073;-57
2024/01/05 01:08:47;;;;;;;518.72;231.27;;;;;;;5.27;100.00;96987.06;5034250;28;20032;-58
2024/01/05 01:11:16;;;;;;;583.92;236.25;;;;;;;5.24;100.00;96980.16;5050609;28;20047;-58
2024/01/05 01:13:42;;;;;;;476.27;234.45;;;;;;;5.20;100.00;96973.28;5053374;28;20467;-57
2024/01/05 01:16:08;;;;;;;625.42;237.68;;;;;;;4.97;100.00;96953.47;5050935;28;20047;-60
2024/01/05 01:18:33;;;;;;;495.75;235.23;;;;;;;4.88;100.00;96954.31;5053251;28;20117;-58
2024/01/05 01:20:59;;;;;;;519.08;232.93;;;;;;;5.00;100.00;96958.63;5050414;28;20234;-57
2024/01/05 01:23:24;;;;;;;494.58;227.40;;;;;;;5.07;100.00;96956.94;5053358;28;20035;-58
2024/01/05 01:25:49;;;;;;;478.95;228.25;;;;;;;5.12;100.00;96951.78;5051665;28;20051;-59
2024/01/05 01:28:15;;;;;;;597.95;242.05;;;;;;;5.17;100.00;96950.06;5052466;28;20115;-57
2024/01/05 01:30:40;;;;;;;513.45;234.68;;;;;;;5.29;100.00;96951.81;5052106;28;20350;-58
2024/01/05 01:33:06;;;;;;;579.05;234.63;;;;;;;5.26;100.00;96951.78;5051717;28;20024;-58
2024/01/05 01:35:31;;;;;;;502.85;233.38;;;;;;;5.27;100.00;96961.28;5051817;28;20044;-58
2024/01/05 01:37:56;;;;;;;500.58;234.85;;;;;;;5.26;100.00;96957.81;5053085;28;20120;-58
2024/01/05 01:40:21;;;;;;;504.55;232.48;;;;;;;5.31;100.00;96952.69;5051334;28;20025;-58
2024/01/05 01:42:49;;;;;;;467.40;224.00;;;;;;;5.30;100.00;96950.94;5052329;28;20036;-59
2024/01/05 01:45:14;;;;;;;598.05;236.32;;;;;;;5.25;100.00;96958.69;5050036;28;20508;-58
2024/01/05 01:47:41;;;;;;;460.23;226.43;;;;;;;5.27;100.00;96938.06;5052624;28;20066;-59
2024/01/05 01:50:07;;;;;;;622.50;240.82;;;;;;;5.13;100.00;96945.78;5049643;28;20040;-58
2024/01/05 01:52:35;;;;;;;515.75;228.65;;;;;;;5.17;100.00;96932.03;5051411;28;20052;-58
2024/01/05 01:55:00;;;;;;;524.78;233.68;;;;;;;5.15;100.00;96941.47;5050708;28;20569;-59
2024/01/05 01:57:25;;;;;;;532.70;238.55;;;;;;;4.99;100.00;96935.44;5051461;28;20048;-58
2024/01/05 01:59:51;;;;;;;511.70;235.52;;;;;;;5.04;100.00;96934.59;5051297;28;20047;-59
2024/01/05 02:02:17;;;;;;;544.60;238.25;;;;;;;5.03;100.00;96927.72;5051691;28;20163;-58
2024/01/05 02:04:42;;;;;;;485.02;233.98;;;;;;;5.06;100.00;96925.13;5052734;28;20567;-60
2024/01/05 02:07:08;;;;;;;541.38;236.23;;;;;;;4.88;100.00;96902.78;5048607;28;20254;-60
2024/01/05 02:09:33;;;;;;;562.58;240.02;;;;;;;4.71;100.00;96897.59;5052034;28;20201;-59
2024/01/05 02:11:59;;;;;;;547.40;234.93;;;;;;;4.75;100.00;96901.88;5050514;28;20045;-58
2024/01/05 02:14:24;;;;;;;542.15;231.82;;;;;;;4.77;100.00;96900.19;5050710;28;20068;-58
2024/01/05 02:16:49;;;;;;;493.77;233.82;;;;;;;4.80;100.00;96900.16;5050948;28;20502;-59
2024/01/05 02:19:15;;;;;;;659.20;254.63;;;;;;;4.78;100.00;96894.19;5050304;28;20032;-57
2024/01/05 02:21:45;;;;;;;485.48;233.57;;;;;;;4.76;100.00;96890.75;5049642;28;20040;-58
2024/01/05 02:24:11;;;;;;;605.33;244.20;;;;;;;4.71;100.00;96895.00;5051906;28;20028;-57
2024/01/05 02:26:38;;;;;;;497.67;234.73;;;;;;;4.65;100.00;96889.84;5050635;28;20098;-56
2024/01/05 02:29:03;;;;;;;515.75;233.52;;;;;;;4.67;100.00;96888.13;5051125;28;20032;-58
2024/01/05 02:31:29;;;;;;;534.97;249.15;;;;;;;4.65;100.00;96882.13;5050350;28;20041;-58
2024/01/05 02:33:54;;;;;;;534.80;242.48;;;;;;;4.56;100.00;96881.25;5051618;28;20051;-57
2024/01/05 02:36:20;;;;;;;513.60;236.50;;;;;;;4.55;100.00;96874.38;5049393;28;20070;-57
2024/01/05 02:38:45;;;;;;;482.02;252.32;;;;;;;4.50;100.00;96872.66;5056619;28;20032;-57
2024/01/05 02:41:10;;;;;;;568.72;251.93;;;;;;;4.48;100.00;96866.63;5055299;28;20048;-57
2024/01/05 02:43:36;;;;;;;487.90;247.98;;;;;;;4.46;100.00;96866.63;5056813;28;20518;-58
2024/01/05 02:46:01;;;;;;;496.60;220.73;;;;;;;4.45;100.00;96864.06;5055080;28;20102;-58
2024/01/05 02:48:26;;;;;;;521.78;232.25;;;;;;;4.41;100.00;96858.88;5055542;28;20032;-60
2024/01/05 02:50:52;;;;;;;490.15;299.58;;;;;;;4.49;100.00;96858.91;5054509;28;20033;-60
2024/01/05 02:53:17;;;;;;;575.20;248.50;;;;;;;4.40;100.00;96857.19;5053659;28;20032;-58
2024/01/05 02:55:42;;;;;;;510.95;279.70;;;;;;;4.41;100.00;96851.16;5054561;28;20048;-58
2024/01/05 02:58:08;;;;;;;605.22;241.55;;;;;;;4.42;100.00;96852.88;5054610;28;20024;-59
2024/01/05 03:00:35;;;;;;;458.33;248.85;;;;;;;4.39;100.00;96859.75;5053616;28;20486;-59
2024/01/05 03:03:00;;;;;;;499.42;235.57;;;;;;;4.42;100.00;96852.88;5027959;28;20632;-58
2024/01/05 03:05:25;;;;;;;549.13;253.32;;;;;;;4.44;100.00;96865.75;5053305;28;21043;-56
2024/01/05 03:07:51;;;;;;;514.42;270.70;;;;;;;4.41;100.00;96865.75;5054190;28;20028;-57
2024/01/05 03:10:16;;;;;;;556.20;234.07;;;;;;;4.42;100.00;96873.47;5053326;28;20032;-57
2024/01/05 03:12:42;;;;;;;474.75;230.50;;;;;;;4.41;100.00;96876.91;5055717;28;20059;-57
2024/01/05 03:15:08;;;;;;;529.15;235.20;;;;;;;4.40;100.00;96877.78;5052874;28;20617;-57
2024/01/05 03:17:33;;;;;;;493.85;234.32;;;;;;;4.34;100.00;96872.59;5055369;28;20040;-59
2024/01/05 03:19:58;;;;;;;477.80;238.25;;;;;;;4.32;100.00;96871.72;5053503;28;20121;-57
2024/01/05 03:22:24;;;;;;;505.08;235.80;;;;;;;4.28;100.00;96873.41;5052095;28;20169;-58
2024/01/05 03:24:49;;;;;;;524.00;239.25;;;;;;;4.26;100.00;96879.41;5035702;28;20194;-59
2024/01/05 03:27:14;;;;;;;600.40;245.43;;;;;;;4.24;100.00;96886.28;5053005;28;20332;-58
2024/01/05 03:29:41;;;;;;;480.38;237.77;;;;;;;4.19;100.00;96878.53;5027831;28;20379;-56
2024/01/05 03:32:07;;;;;;;502.33;242.07;;;;;;;4.22;100.00;96865.69;5052656;28;20299;-57
2024/01/05 03:34:33;;;;;;;499.35;241.45;;;;;;;4.23;100.00;96857.09;5053987;28;20565;-57
2024/01/05 03:36:58;;;;;;;531.20;247.25;;;;;;;4.33;100.00;96862.28;5052871;28;20568;-57
2024/01/05 03:39:25;;;;;;;622.47;255.82;;;;;;;4.46;100.00;96856.34;5053142;28;20057;-57
2024/01/05 03:41:50;;;;;;;493.95;250.85;;;;;;;4.51;100.00;96852.06;5053170;28;20044;-58
2024/01/05 03:44:20;;;;;;;638.83;248.15;;;;;;;4.51;100.00;96854.63;5052618;28;20036;-57
2024/01/05 03:46:49;;;;;;;476.92;236.63;;;;;;;4.52;100.00;96851.19;5054086;28;20086;-57
2024/01/05 03:49:15;;;;;;;530.35;236.15;;;;;;;4.51;100.00;96841.75;5051921;28;20111;-58
2024/01/05 03:51:41;;;;;;;515.28;248.25;;;;;;;4.49;100.00;96822.00;5054198;28;20044;-58
2024/01/05 03:54:06;;;;;;;494.95;249.13;;;;;;;4.54;100.00;96804.84;5051737;28;20036;-58
2024/01/05 03:56:42;;;;;;;494.40;243.80;;;;;;;4.54;100.00;96791.97;5053731;28;20037;-57
2024/01/05 03:59:08;;;;;;;499.65;268.85;;;;;;;4.55;100.00;96776.53;5052734;28;20047;-57
2024/01/05 04:01:41;;;;;;;518.35;336.55;;;;;;;4.61;100.00;96749.06;5054202;28;20051;-57
2024/01/05 04:04:07;;;;;;;545.28;274.80;;;;;;;4.53;100.00;96734.44;5052240;28;20024;-56
2024/01/05 04:06:32;;;;;;;519.28;261.23;;;;;;;4.56;100.00;96767.06;5053116;28;20287;-57
2024/01/05 04:08:58;;;;;;;527.78;247.98;;;;;;;4.65;100.00;96761.94;5053316;28;20024;-57
2024/01/05 04:11:25;;;;;;;703.92;344.65;;;;;;;4.85;100.00;96758.50;5051816;28;20078;-58
2024/01/05 04:13:51;;;;;;;488.23;275.35;;;;;;;4.84;100.00;96740.47;5052703;28;20495;-57
2024/01/05 04:16:16;;;;;;;562.92;260.95;;;;;;;4.87;100.00;96746.50;5051758;28;20044;-58
2024/01/05 04:18:41;;;;;;;509.58;264.40;;;;;;;4.86;100.00;96751.63;5054151;28;20234;-57
2024/01/05 04:21:07;;;;;;;501.58;268.05;;;;;;;4.88;100.00;96762.78;5053348;28;20341;-58
2024/01/05 04:23:33;;;;;;;535.22;310.08;;;;;;;4.91;100.00;96768.81;5053524;28;20855;-58
2024/01/05 04:25:58;;;;;;;558.88;268.65;;;;;;;4.84;100.00;96754.22;5053977;28;20163;-58
2024/01/05 04:28:23;;;;;;;616.55;255.45;;;;;;;4.91;100.00;96763.66;5051950;28;20325;-57
2024/01/05 04:30:49;;;;;;;493.70;240.63;;;;;;;4.80;100.00;96761.06;5051644;28;20044;-58
2024/01/05 04:33:14;;;;;;;613.20;238.95;;;;;;;4.81;100.00;96754.22;5051136;28;20035;-59
2024/01/05 04:35:39;;;;;;;458.52;236.23;;;;;;;4.75;100.00;96757.63;5051943;28;20152;-57
2024/01/05 04:38:04;;;;;;;512.20;269.20;;;;;;;4.68;100.00;96755.94;5052491;28;20364;-57
2024/01/05 04:40:30;;;;;;;553.85;263.48;;;;;;;4.66;100.00;96762.78;5050446;28;20044;-58
2024/01/05 04:42:55;;;;;;;499.90;237.30;;;;;;;4.54;100.00;96759.34;5052838;28;20547;-58
2024/01/05 04:45:20;;;;;;;614.38;245.73;;;;;;;4.60;100.00;96770.53;5051177;28;20047;-58
2024/01/05 04:47:46;;;;;;;525.22;245.13;;;;;;;4.51;100.00;96768.78;5053380;28;20052;-57
2024/01/05 04:50:12;;;;;;;508.20;229.93;;;;;;;4.49;100.00;96766.19;5052850;28;20129;-58
2024/01/05 04:52:37;;;;;;;446.10;231.73;;;;;;;4.58;100.00;96770.53;5054683;28;20350;-57
2024/01/05 04:55:04;;;;;;;566.15;242.43;;;;;;;4.56;100.00;96765.38;5053324;28;20079;-57
2024/01/05 04:57:30;;;;;;;540.47;235.65;;;;;;;4.50;100.00;96761.94;5051927;28;20156;-57
2024/01/05 04:59:55;;;;;;;492.52;225.75;;;;;;;4.51;100.00;96754.22;5051971;28;20377;-58
2024/01/05 05:02:20;;;;;;;552.78;240.25;;;;;;;4.38;100.00;96747.34;5032456;28;20252;-57
2024/01/05 05:04:45;;;;;;;484.95;236.07;;;;;;;4.32;100.00;96737.88;5053418;28;20412;-56
2024/01/05 05:07:11;;;;;;;511.63;243.23;;;;;;;4.29;100.00;96733.59;5050392;28;20456;-56
2024/01/05 05:09:36;;;;;;;612.67;248.35;;;;;;;4.27;100.00;96730.13;5051024;28;20048;-56
2024/01/05 05:12:03;;;;;;;513.80;247.30;;;;;;;4.21;100.00;96719.84;5052216;28;20134;-57
2024/01/05 05:14:28;;;;;;;637.53;247.57;;;;;;;4.27;100.00;96713.84;5050495;28;20032;-57
2024/01/05 05:16:54;;;;;;;530.70;241.25;;;;;;;4.20;100.00;96707.84;5051167;28;20066;-58
2024/01/05 05:19:19;;;;;;;583.03;245.63;;;;;;;4.33;100.00;96718.13;5050449;28;20024;-56
2024/01/05 05:21:44;;;;;;;467.30;238.20;;;;;;;4.37;100.00;96704.41;5050810;28;20135;-57
2024/01/05 05:24:11;;;;;;;487.83;245.50;;;;;;;4.34;100.00;96701.84;5052366;28;20024;-58
2024/01/05 05:26:36;;;;;;;473.15;241.82;;;;;;;4.40;100.00;96714.72;5050153;28;20040;-57
2024/01/05 05:29:02;;;;;;;550.90;247.25;;;;;;;4.38;100.00;96719.00;5053151;28;20153;-58
2024/01/05 05:31:27;;;;;;;613.97;251.00;;;;;;;4.42;100.00;96723.31;5049773;28;20444;-57
2024/01/05 05:33:52;;;;;;;489.30;236.85;;;;;;;4.34;100.00;96723.28;5052632;28;20511;-59
2024/01/05 05:36:18;;;;;;;654.08;255.40;;;;;;;4.32;100.00;96724.13;5050411;28;20040;-58
2024/01/05 05:38:43;;;;;;;444.42;243.05;;;;;;;4.34;100.00;96719.88;5054505;28;20411;-58
2024/01/05 05:41:08;;;;;;;500.30;254.65;;;;;;;4.32;100.00;96731.88;5050148;28;20048;-58
2024/01/05 05:43:34;;;;;;;524.90;244.63;;;;;;;4.36;100.00;96731.88;5050906;28;20073;-57
2024/01/05 05:45:59;;;;;;;474.15;251.75;;;;;;;4.19;100.00;96733.56;5049797;28;20049;-56
2024/01/05 05:48:24;;;;;;;648.33;322.23;;;;;;;4.19;100.00;96737.00;5050545;28;20078;-58
2024/01/05 05:50:50;;;;;;;560.70;279.75;;;;;;;4.13;100.00;96737.00;5050741;28;20091;-57
2024/01/05 05:53:15;;;;;;;493.83;242.85;;;;;;;4.15;100.00;96742.97;5051176;28;20407;-58
2024/01/05 05:55:41;;;;;;;500.83;243.93;;;;;;;4.01;100.00;96742.97;5050982;28;20037;-58
2024/01/05 05:58:08;;;;;;;547.53;257.27;;;;;;;3.93;100.00;96748.06;5052339;28;20412;-57
2024/01/05 06:00:33;;;;;;;494.27;251.65;;;;;;;3.93;100.00;96745.50;5047873;28;20044;-57
2024/01/05 06:02:58;;;;;;;545.45;256.38;;;;;;;3.92;100.00;96748.94;5032933;28;20032;-57
2024/01/05 06:05:24;;;;;;;702.35;268.95;;;;;;;3.87;100.00;96741.19;5048842;28;20496;-57
2024/01/05 06:07:49;;;;;;;498.20;258.55;;;;;;;3.85;100.00;96747.19;5051426;28;20499;-56
2024/01/05 06:10:15;;;;;;;521.83;262.88;;;;;;;3.91;100.00;96749.81;5049637;28;20056;-58
2024/01/05 06:12:40;;;;;;;506.90;250.38;;;;;;;4.01;100.00;96751.53;5055362;28;20044;-56
2024/01/05 06:15:07;;;;;;;524.90;259.52;;;;;;;3.98;100.00;96748.09;5055629;28;20032;-57
2024/01/05 06:17:32;;;;;;;598.92;267.15;;;;;;;4.03;100.00;96751.53;5053782;28;20449;-57
2024/01/05 06:19:58;;;;;;;543.28;263.15;;;;;;;3.95;100.00;96748.94;5054990;28;20051;-58
2024/01/05 06:22:23;;;;;;;588.33;270.27;;;;;;;3.76;100.00;96743.72;5053774;28;20064;-57
2024/01/05 06:24:48;;;;;;;499.85;263.27;;;;;;;3.74;100.00;96744.56;5053929;28;20364;-56
2024/01/05 06:27:14;;;;;;;571.70;271.23;;;;;;;3.72;100.00;96743.72;5053656;28;20040;-57
2024/01/05 06:29:39;;;;;;;516.45;268.77;;;;;;;3.68;100.00;96750.59;5055160;28;20028;-58
2024/01/05 06:32:05;;;;;;;515.65;265.80;;;;;;;3.60;100.00;96747.13;5032146;28;20052;-57
2024/01/05 06:34:30;;;;;;;604.63;276.85;;;;;;;3.59;100.00;96750.53;5053548;28;20028;-57
2024/01/05 06:36:56;;;;;;;539.85;275.70;;;;;;;3.65;100.00;96755.72;5053343;28;20051;-59
2024/01/05 06:39:21;;;;;;;596.53;272.40;;;;;;;3.25;100.00;96771.78;5052957;28;20390;-60
2024/01/05 06:41:46;;;;;;;536.38;283.17;;;;;;;3.10;100.00;96769.97;5054290;28;20676;-59
2024/01/05 06:44:12;;;;;;;531.78;269.90;;;;;;;3.07;100.00;96760.53;5054697;28;20384;-57
2024/01/05 06:46:37;;;;;;;470.40;298.98;;;;;;;2.90;100.00;96751.84;5053242;28;20125;-58
2024/01/05 06:49:03;;;;;;;557.83;270.50;;;;;;;2.88;100.00;96748.41;5052999;28;20577;-57
2024/01/05 06:51:30;;;;;;;645.20;304.00;;;;;;;2.82;100.00;96746.66;5052166;28;20123;-57
2024/01/05 06:53:57;;;;;;;479.17;269.55;;;;;;;2.89;100.00;96745.84;5036612;28;20581;-57
2024/01/05 06:56:23;;;;;;;609.85;294.80;;;;;;;2.81;100.00;96743.22;5052347;28;20426;-58
2024/01/05 06:58:50;;;;;;;476.88;259.83;;;;;;;3.08;100.00;96741.69;5056296;28;20566;-58
2024/01/05 07:01:17;;;;;;;478.15;259.20;;;;;;;3.16;100.00;96746.91;5056557;28;20072;-58
2024/01/05 07:03:42;;;;;;;491.13;253.73;;;;;;;3.04;100.00;96747.66;5057267;28;20538;-58
2024/01/05 07:06:10;;;;;;;476.83;258.30;;;;;;;3.12;100.00;96747.72;5055602;28;20048;-59
2024/01/05 07:08:35;;;;;;;499.38;261.58;;;;;;;3.11;100.00;96749.44;5057015;28;20021;-60
2024/01/05 07:11:00;;;;;;;520.63;347.35;;;;;;;3.12;100.00;96740.03;5055697;28;20122;-57
2024/01/05 07:13:26;;;;;;;541.22;302.02;;;;;;;3.07;100.00;96745.13;5021007;28;20040;-58
2024/01/05 07:15:52;;;;;;;502.90;286.30;;;;;;;3.21;100.00;96744.34;5055844;28;20032;-57
2024/01/05 07:18:17;;;;;;;508.08;349.48;;;;;;;3.19;100.00;96740.91;5057728;28;20214;-56
2024/01/05 07:20:42;;;;;;;481.10;291.15;;;;;;;3.36;100.00;96744.44;5056326;28;20038;-59
2024/01/05 07:23:08;;;;;;;450.40;238.18;;;;;;;3.49;100.00;96749.66;5058126;28;20369;-56
2024/01/05 07:25:33;;;;;;;501.45;249.50;;;;;;;3.33;100.00;96744.41;5055798;28;20698;-57
2024/01/05 07:27:59;;;;;;;475.75;245.70;;;;;;;3.34;100.00;96751.25;5057973;28;20389;-57
2024/01/05 07:30:24;;;;;;;519.00;250.50;;;;;;;3.32;100.00;96752.09;5056154;28;20035;-57
2024/01/05 07:32:49;;;;;;;485.05;246.70;;;;;;;3.35;100.00;96758.13;5057075;28;20127;-55
2024/01/05 07:35:15;;;;;;;468.38;248.45;;;;;;;3.37;100.00;96755.56;5055958;28;20433;-57
2024/01/05 07:37:40;;;;;;;449.58;248.55;;;;;;;3.38;100.00;96765.00;5057357;28;20044;-60
2024/01/05 07:40:06;;;;;;;484.13;252.10;;;;;;;3.44;100.00;96762.47;5056038;28;20296;-55
2024/01/05 07:42:31;;;;;;;499.50;250.63;;;;;;;3.53;100.00;96758.22;5054337;28;20147;-56
2024/01/05 07:44:57;;;;;;;560.38;257.10;;;;;;;3.50;100.00;96754.75;5056013;28;20435;-56
2024/01/05 07:47:23;;;;;;;548.28;259.73;;;;;;;3.60;100.00;96747.13;5055325;28;20028;-59
2024/01/05 07:49:49;;;;;;;476.52;250.27;;;;;;;3.71;100.00;96742.84;5055672;28;20032;-59
2024/01/05 07:52:15;;;;;;;500.73;305.05;;;;;;;3.76;100.00;96743.72;5056626;28;20036;-56
2024/01/05 07:54:41;;;;;;;493.50;252.35;;;;;;;3.89;100.00;96748.91;5057004;28;20340;-56
2024/01/05 07:57:08;;;;;;;462.58;250.65;;;;;;;3.91;100.00;96742.06;5055917;28;20131;-56
2024/01/05 07:59:33;;;;;;;612.08;267.33;;;;;;;3.89;100.00;96741.19;5055214;28;20463;-56
2024/01/05 08:01:59;;;;;;;507.80;259.15;;;;;;;3.90;100.00;96741.22;5056359;28;20041;-56
2024/01/05 08:04:24;;;;;;;572.28;264.10;;;;;;;4.00;100.00;96736.97;5056513;28;20029;-56
2024/01/05 08:06:50;;;;;;;500.00;258.73;;;;;;;4.15;100.00;96746.44;5054781;28;20338;-57
2024/01/05 08:09:16;;;;;;;493.52;267.15;;;;;;;4.28;100.00;96755.00;5055609;28;20590;-59
2024/01/05 08:11:41;;;;;;;474.35;256.05;;;;;;;4.39;100.00;96754.19;5055601;28;20082;-58
2024/01/05 08:14:09;;;;;;;524.65;259.20;;;;;;;4.43;100.00;96749.03;5037317;28;20040;-58
2024/01/05 08:16:35;;;;;;;505.90;252.70;;;;;;;4.48;100.00;96754.19;5055195;28;20519;-56
2024/01/05 08:19:00;;;;;;;475.48;251.57;;;;;;;4.51;100.00;96743.91;5056222;28;20041;-58
2024/01/05 08:21:25;;;;;;;563.63;262.38;;;;;;;4.69;100.00;96749.91;5034960;28;20461;-56
2024/01/05 08:23:51;;;;;;;473.33;242.10;;;;;;;4.74;100.00;96745.63;5055969;28;20541;-58
2024/01/05 08:26:18;;;;;;;480.73;242.43;;;;;;;4.84;100.00;96749.06;5054858;28;20405;-57
2024/01/05 08:28:43;;;;;;;486.00;252.73;;;;;;;5.03;100.00;96754.19;5036857;28;20031;-60
2024/01/05 08:31:08;;;;;;;493.35;255.40;;;;;;;5.02;100.00;96755.06;5054706;28;20029;-59
2024/01/05 08:33:34;;;;;;;530.20;253.35;;;;;;;5.02;100.00;96750.78;5036044;28;20037;-58
2024/01/05 08:36:00;;;;;;;550.08;260.30;;;;;;;5.12;100.00;96759.31;5053834;28;20265;-57
2024/01/05 08:38:25;;;;;;;521.92;250.65;;;;;;;5.17;100.00;96760.19;5056330;28;20711;-57
2024/01/05 08:40:52;;;;;;;505.63;264.95;;;;;;;5.40;100.00;96751.56;5054415;28;20063;-57
2024/01/05 08:43:18;;;;;;;495.40;243.05;;;;;;;5.43;100.00;96748.97;5057633;28;20121;-55
2024/01/05 08:45:44;;;;;;;481.05;235.35;;;;;;;5.54;100.00;96750.66;5053850;28;20040;-57
2024/01/05 08:48:11;;;;;;;498.15;239.70;;;;;;;5.83;100.00;96744.53;5053894;28;20103;-57
2024/01/05 08:50:37;;;;;;;550.58;256.30;;;;;;;5.80;100.00;96752.28;5035447;28;20078;-60
2024/01/05 08:53:02;;;;;;;465.15;246.73;;;;;;;5.96;100.00;96750.47;5056526;28;20663;-58
2024/01/05 08:55:28;;;;;;;571.38;258.48;;;;;;;6.14;100.00;96746.09;5053108;28;20036;-57
2024/01/05 08:57:53;;;;;;;535.55;262.52;;;;;;;6.22;100.00;96752.09;5055546;28;20201;-57
2024/01/05 09:00:19;;;;;;;515.40;250.18;;;;;;;6.29;100.00;96751.19;5053352;28;20086;-57
2024/01/05 09:02:44;;;;;;;509.58;282.55;;;;;;;6.18;100.00;96750.38;5051174;28;20025;-58
2024/01/05 09:05:10;;;;;;;511.63;305.02;;;;;;;6.27;100.00;96747.75;5055734;28;20028;-57
2024/01/05 09:07:35;;;;;;;536.95;272.65;;;;;;;6.11;100.00;96749.56;5057875;28;20081;-58
2024/01/05 09:10:01;;;;;;;499.40;260.67;;;;;;;6.29;100.00;96755.47;5057216;28;20096;-58
2024/01/05 09:12:27;;;;;;;546.33;283.13;;;;;;;5.94;100.00;96749.63;5056836;28;20039;-57
2024/01/05 09:14:54;;;;;;;480.88;261.40;;;;;;;6.11;100.00;96754.72;5057643;28;20055;-56
2024/01/05 09:17:19;;;;;;;488.17;242.48;;;;;;;6.12;100.00;96756.44;5057573;28;20116;-57
2024/01/05 09:19:44;;;;;;;498.02;317.02;;;;;;;6.13;100.00;96747.84;5055833;28;20028;-57
2024/01/05 09:22:11;;;;;;;452.63;243.43;;;;;;;6.29;100.00;96758.94;5058993;28;20064;-56
2024/01/05 09:24:37;;;;;;;519.45;299.08;;;;;;;6.46;100.00;96748.47;5057756;28;20636;-58
2024/01/05 09:27:02;;;;;;;461.20;251.48;;;;;;;6.69;100.00;96757.81;5057203;28;20712;-59
2024/01/05 09:29:29;;;;;;;586.63;255.50;;;;;;;6.61;100.00;96744.94;5056605;28;20029;-58
2024/01/05 09:31:56;;;;;;;483.42;252.32;;;;;;;6.98;100.00;96742.94;5057505;28;20076;-58
2024/01/05 09:34:21;;;;;;;508.35;261.92;;;;;;;7.24;100.00;96739.22;5057612;28;20029;-58
2024/01/05 09:36:47;;;;;;;471.25;268.60;;;;;;;7.28;100.00;96730.56;5056993;28;20037;-57
2024/01/05 09:39:13;;;;;;;469.05;238.38;;;;;;;7.43;100.00;96734.72;5052335;28;20314;-57
2024/01/05 09:41:41;;;;;;;486.10;238.65;;;;;;;7.43;100.00;96734.72;5054787;28;20146;-57
2024/01/05 09:44:06;;;;;;;502.13;242.88;;;;;;;7.59;100.00;96732.81;5058836;28;20029;-58
2024/01/05 09:46:33;;;;;;;555.08;242.48;;;;;;;7.88;100.00;96726.44;5058245;28;20414;-58
2024/01/05 09:48:59;;;;;;;511.40;277.80;;;;;;;7.67;100.00;96720.63;5063669;28;20548;-58
2024/01/05 09:51:30;;;;;;;540.25;242.77;;;;;;;7.90;100.00;96713.44;5060991;28;20106;-57
2024/01/05 09:53:55;;;;;;;529.03;249.70;;;;;;;8.15;100.00;96708.81;5062131;28;20020;-57
2024/01/05 09:56:21;;;;;;;506.08;242.85;;;;;;;8.21;100.00;96706.09;5061769;28;20036;-57
2024/01/05 09:58:50;;;;;;;471.55;235.40;;;;;;;8.42;100.00;96698.91;5062719;28;20492;-57
2024/01/05 10:01:21;;;;;;;521.10;281.63;;;;;;;7.51;100.00;96703.59;5060470;28;20032;-59
2024/01/05 10:03:47;;;;;;;513.85;322.40;;;;;;;6.60;100.00;96694.13;5063048;28;20032;-58
2024/01/05 10:06:15;;;;;;;497.73;351.15;;;;;;;6.67;100.00;96688.91;5061580;28;20219;-58
2024/01/05 10:08:41;;;;;;;525.00;345.17;;;;;;;6.68;100.00;96694.06;5062501;28;20033;-59
2024/01/05 10:11:07;;;;;;;477.17;263.67;;;;;;;6.62;100.00;96695.00;5061847;28;20051;-57
2024/01/05 10:13:32;;;;;;;513.50;252.07;;;;;;;6.64;100.00;96694.97;5062238;28;20331;-57
2024/01/05 10:16:02;;;;;;;499.45;306.77;;;;;;;6.52;100.00;96695.91;5060552;28;20459;-59
2024/01/05 10:18:29;;;;;;;529.10;259.38;;;;;;;6.53;100.00;96695.03;5062895;28;20052;-57
2024/01/05 10:20:57;;;;;;;525.42;285.65;;;;;;;6.63;100.00;96695.84;5060892;28;20151;-58
2024/01/05 10:23:23;;;;;;;518.70;280.38;;;;;;;6.64;100.00;96693.25;5061951;28;20024;-57
2024/01/05 10:25:51;;;;;;;489.15;298.63;;;;;;;6.59;100.00;96691.56;5060577;28;20436;-57
2024/01/05 10:28:32;;;;;;;538.30;345.90;;;;;;;6.73;100.00;96691.44;5061147;28;20529;-57
2024/01/05 10:31:31;;;;;;;509.92;263.95;;;;;;;7.14;100.00;96689.34;5060373;28;20109;-56
2024/01/05 10:33:56;;;;;;;512.85;258.38;;;;;;;7.69;100.00;96689.56;5022641;28;20069;-59
2024/01/05 10:36:23;;;;;;;510.65;255.30;;;;;;;7.91;100.00;96697.88;5059405;28;20029;-57
2024/01/05 10:38:50;;;;;;;476.58;249.50;;;;;;;7.96;100.00;96695.25;5061298;28;20024;-56
2024/01/05 10:41:16;;;;;;;494.05;264.60;;;;;;;7.81;100.00;96699.78;5060039;28;20609;-60
2024/01/05 10:43:43;;;;;;;536.85;256.38;;;;;;;7.81;100.00;96691.13;5060201;28;20036;-59
2024/01/05 10:46:12;;;;;;;476.33;243.52;;;;;;;7.99;100.00;96690.03;5060133;28;20036;-59
2024/01/05 10:48:41;;;;;;;544.75;251.35;;;;;;;8.14;100.00;96685.50;5060284;28;20024;-58
2024/01/05 10:51:06;;;;;;;511.85;246.70;;;;;;;8.20;100.00;96696.63;5040908;28;20045;-57
2024/01/05 10:53:35;;;;;;;602.28;257.63;;;;;;;8.26;100.00;96694.81;5059974;28;20028;-57
2024/01/05 10:56:01;;;;;;;504.65;242.38;;;;;;;8.40;100.00;96697.22;5059609;28;20028;-58